Time;durP1;ratioP1;P1;durP2;ratioP2;P2;SDS_P1;SDS_P2;PMS_P1;PMS_P2;Temp;Humidity;BMP_temperature;BMP_pressure;BME280_temperature;BME280_humidity;BME280_pressure;Samples;Min_cycle;Max_cycle;Signal;HPM_P1;HPM_P2
2022/12/21 00:01:14;;;;;;;947.10;75.80;;;6.80;99.90;;;;;;5034239;28;19921;-25
2022/12/21 00:03:40;;;;;;;909.00;70.13;;;6.70;99.90;;;;;;5034622;28;20041;-25
2022/12/21 00:06:07;;;;;;;833.42;67.32;;;6.60;99.90;;;;;;5034362;28;20046;-25
2022/12/21 00:08:45;;;;;;;901.45;73.60;;;6.60;99.90;;;;;;5017505;28;20088;-25
2022/12/21 00:11:12;;;;;;;824.08;73.32;;;6.60;99.90;;;;;;5034080;28;20049;-25
2022/12/21 00:13:39;;;;;;;719.53;66.72;;;6.50;99.90;;;;;;5034608;28;20124;-25
2022/12/21 00:16:17;;;;;;;631.03;57.30;;;6.50;99.90;;;;;;5016539;28;20095;-25
2022/12/21 00:18:43;;;;;;;533.33;53.03;;;6.50;99.90;;;;;;5034345;28;20073;-25
2022/12/21 00:21:18;;;;;;;853.20;72.35;;;6.40;99.90;;;;;;5033892;28;20052;-25
2022/12/21 00:23:46;;;;;;;750.08;64.72;;;6.50;99.90;;;;;;5033807;28;20045;-25
2022/12/21 00:26:13;;;;;;;518.85;49.75;;;6.30;99.90;;;;;;5033795;28;20112;-25
2022/12/21 00:28:39;;;;;;;793.50;63.35;;;6.40;99.90;;;;;;5033455;28;20407;-25
2022/12/21 00:31:05;;;;;;;723.38;61.13;;;6.30;99.90;;;;;;5033756;28;20049;-25
2022/12/21 00:33:31;;;;;;;688.35;57.63;;;6.50;99.90;;;;;;5033749;28;20042;-25
2022/12/21 00:35:58;;;;;;;619.90;55.75;;;6.40;99.90;;;;;;5034242;28;20049;-25
2022/12/21 00:38:24;;;;;;;469.73;47.50;;;6.30;99.90;;;;;;5033630;28;20491;-25
2022/12/21 00:41:00;;;;;;;429.98;42.53;;;6.30;99.90;;;;;;5016773;28;20052;-25
2022/12/21 00:43:29;;;;;;;785.08;66.55;;;6.40;99.90;;;;;;5033586;28;20046;-25
2022/12/21 00:45:54;;;;;;;502.70;49.20;;;6.30;99.90;;;;;;5034369;28;20392;-25
2022/12/21 00:48:20;;;;;;;539.92;52.55;;;6.40;99.90;;;;;;5016990;28;20053;-25
2022/12/21 00:50:47;;;;;;;491.02;48.83;;;6.20;99.90;;;;;;5033574;28;20103;-25
2022/12/21 00:53:15;;;;;;;517.72;51.53;;;6.30;99.90;;;;;;5033771;28;20049;-25
2022/12/21 00:55:41;;;;;;;640.45;61.85;;;6.20;99.90;;;;;;5033461;28;20045;-24
2022/12/21 00:58:07;;;;;;;319.73;35.50;;;6.20;99.90;;;;;;5033456;28;20546;-25
2022/12/21 01:00:33;;;;;;;574.75;55.72;;;6.30;99.90;;;;;;5033691;28;20068;-25
2022/12/21 01:02:59;;;;;;;354.15;38.55;;;6.10;99.90;;;;;;5034138;28;20042;-25
2022/12/21 01:05:27;;;;;;;449.23;48.92;;;6.20;99.90;;;;;;5016830;28;20468;-25
2022/12/21 01:07:52;;;;;;;465.23;51.42;;;6.10;99.90;;;;;;5033661;28;20392;-25
2022/12/21 01:10:18;;;;;;;307.73;39.70;;;6.20;99.90;;;;;;5049285;28;20136;-25
2022/12/21 01:12:44;;;;;;;592.53;58.78;;;6.20;99.90;;;;;;5015904;28;20041;-25
2022/12/21 01:15:10;;;;;;;730.65;66.40;;;6.10;99.90;;;;;;5033208;28;20128;-25
2022/12/21 01:17:36;;;;;;;558.47;56.58;;;6.10;99.90;;;;;;5049074;28;20369;-25
2022/12/21 01:20:01;;;;;;;640.20;59.80;;;6.10;99.90;;;;;;5033572;28;20417;-25
2022/12/21 01:22:27;;;;;;;537.47;58.38;;;6.00;99.90;;;;;;5033223;28;20053;-25
2022/12/21 01:24:53;;;;;;;444.90;47.22;;;6.00;99.90;;;;;;5016061;28;20060;-25
2022/12/21 01:27:19;;;;;;;561.03;56.25;;;6.00;99.90;;;;;;5033195;28;20052;-25
2022/12/21 01:29:44;;;;;;;553.47;54.28;;;5.90;99.90;;;;;;5048522;28;20080;-25
2022/12/21 01:32:10;;;;;;;636.88;63.03;;;6.00;99.90;;;;;;5033196;28;20057;-25
2022/12/21 01:34:36;;;;;;;737.90;66.28;;;5.80;99.90;;;;;;5048786;28;20045;-25
2022/12/21 01:37:02;;;;;;;491.50;51.20;;;5.80;99.90;;;;;;5033401;28;20475;-25
2022/12/21 01:39:30;;;;;;;471.92;48.67;;;5.70;99.90;;;;;;5033121;28;20529;-26
2022/12/21 01:41:55;;;;;;;617.92;58.40;;;5.90;99.90;;;;;;5033404;28;20407;-25
2022/12/21 01:44:59;;;;;;;527.33;55.97;;;5.70;99.90;;;;;;5033008;28;20038;-25
2022/12/21 01:47:58;;;;;;;;;;;5.70;99.90;;;;;;5033487;28;20053;-25
2022/12/21 01:50:55;;;;;;;483.23;49.50;;;5.60;99.90;;;;;;4999612;28;19932;-25
2022/12/21 01:53:27;;;;;;;507.95;50.50;;;5.70;99.90;;;;;;5035311;28;20120;-25
2022/12/21 01:55:55;;;;;;;531.20;52.65;;;5.50;99.90;;;;;;5036587;28;20053;-25
2022/12/21 01:58:24;;;;;;;471.48;52.15;;;5.80;99.90;;;;;;5037079;28;20042;-25
2022/12/21 02:00:50;;;;;;;703.08;67.75;;;5.50;99.90;;;;;;5052091;28;20085;-25
2022/12/21 02:03:19;;;;;;;601.03;61.90;;;5.60;99.90;;;;;;5036409;28;20436;-25
2022/12/21 02:06:08;;;;;;;423.55;46.47;;;5.50;99.90;;;;;;5036046;28;20049;-26
2022/12/21 02:08:35;;;;;;;551.90;54.60;;;5.60;99.90;;;;;;5036630;28;20050;-26
2022/12/21 02:11:02;;;;;;;631.88;59.15;;;5.70;99.90;;;;;;5036235;28;20487;-26
2022/12/21 02:13:28;;;;;;;597.90;57.15;;;5.70;99.90;;;;;;5036204;28;20044;-25
2022/12/21 02:16:07;;;;;;;621.83;59.15;;;5.60;99.90;;;;;;5018672;28;20049;-26
2022/12/21 02:18:54;;;;;;;579.47;56.05;;;5.50;99.90;;;;;;5035797;28;20099;-26
2022/12/21 02:21:26;;;;;;;704.53;60.42;;;5.50;99.90;;;;;;5036088;28;20053;-26
2022/12/21 02:24:46;;;;;;;451.08;45.65;;;5.50;99.90;;;;;;5035975;28;20052;-26
2022/12/21 02:27:41;;;;;;;392.65;42.90;;;5.40;99.90;;;;;;4975742;28;20113;-26
2022/12/21 02:30:20;;;;;;;476.65;45.13;;;5.50;99.90;;;;;;5036227;28;20045;-26
2022/12/21 02:32:57;;;;;;;324.75;35.42;;;5.50;99.90;;;;;;5036196;28;20152;-26
2022/12/21 02:35:41;;;;;;;389.52;39.53;;;5.40;99.90;;;;;;5035855;28;20049;-27
2022/12/21 02:38:28;;;;;;;511.48;45.85;;;5.40;99.90;;;;;;5036380;28;20056;-26
2022/12/21 02:40:58;;;;;;;381.13;37.60;;;5.30;99.90;;;;;;5036558;28;20053;-27
2022/12/21 02:46:34;;;;;;;381.48;36.60;;;5.20;99.90;;;;;;5035629;28;20072;-26
2022/12/21 02:49:11;;;;;;;347.08;35.97;;;5.30;99.90;;;;;;5035292;28;20538;-26
2022/12/21 02:51:45;;;;;;;522.35;43.42;;;5.40;99.90;;;;;;5035528;28;20570;-26
2022/12/21 02:54:12;;;;;;;485.02;41.10;;;5.40;99.90;;;;;;5036395;28;20440;-26
2022/12/21 02:56:38;;;;;;;394.55;35.17;;;5.20;99.90;;;;;;5035453;28;20042;-26
2022/12/21 02:59:07;;;;;;;274.83;28.05;;;5.40;99.90;;;;;;5035379;28;20389;-27
2022/12/21 03:02:00;;;;;;;438.55;38.72;;;5.40;99.90;;;;;;5035890;28;20049;-27
2022/12/21 03:04:41;;;;;;;360.35;36.45;;;5.40;99.90;;;;;;5018283;28;20049;-27
2022/12/21 03:07:51;;;;;;;293.58;31.20;;;5.40;99.90;;;;;;5035184;28;20056;-27
2022/12/21 03:10:36;;;;;;;413.15;39.05;;;5.40;99.90;;;;;;5001762;28;20091;-27
2022/12/21 03:13:35;;;;;;;446.50;36.60;;;5.40;99.90;;;;;;5035723;28;20053;-28
2022/12/21 03:16:14;;;;;;;442.10;36.47;;;5.50;99.90;;;;;;5050019;28;20049;-28
2022/12/21 03:18:58;;;;;;;364.77;33.60;;;5.50;99.90;;;;;;5034926;28;20100;-27
2022/12/21 03:21:38;;;;;;;431.25;40.53;;;5.30;99.90;;;;;;5035206;28;20045;-28
2022/12/21 03:24:16;;;;;;;451.17;33.90;;;5.20;99.90;;;;;;5035393;28;20395;-28
2022/12/21 03:26:45;;;;;;;407.58;33.38;;;5.20;99.90;;;;;;5035725;28;20049;-28
2022/12/21 03:29:16;;;;;;;250.85;25.05;;;5.40;99.90;;;;;;5035118;28;20046;-28
2022/12/21 03:31:56;;;;;;;319.85;31.30;;;5.30;99.90;;;;;;5035651;28;20049;-28
2022/12/21 03:34:34;;;;;;;400.83;34.22;;;5.10;99.90;;;;;;5034742;28;20052;-29
2022/12/21 03:37:04;;;;;;;292.10;28.27;;;5.40;99.90;;;;;;5034696;28;20049;-29
2022/12/21 03:39:31;;;;;;;463.13;33.72;;;5.20;99.90;;;;;;5034644;28;20045;-29
2022/12/21 03:42:04;;;;;;;533.00;37.53;;;5.10;99.90;;;;;;5049918;28;20045;-29
2022/12/21 03:44:46;;;;;;;185.68;19.70;;;5.30;99.90;;;;;;5034543;28;20053;-29
2022/12/21 03:47:20;;;;;;;227.07;23.77;;;5.30;99.90;;;;;;5035082;28;20045;-29
2022/12/21 03:49:53;;;;;;;372.70;34.65;;;5.20;99.90;;;;;;5034453;28;20499;-30
2022/12/21 03:52:22;;;;;;;419.25;35.83;;;5.20;99.90;;;;;;5050597;28;20061;-27
2022/12/21 03:55:08;;;;;;;285.75;27.92;;;5.20;99.90;;;;;;5034280;28;20518;-27
2022/12/21 03:57:36;;;;;;;480.45;36.50;;;5.00;99.90;;;;;;5034867;28;20041;-27
2022/12/21 04:00:04;;;;;;;364.17;31.20;;;4.90;99.90;;;;;;5034224;28;20103;-28
2022/12/21 04:02:50;;;;;;;331.13;26.40;;;5.10;99.90;;;;;;5034793;28;20049;-28
2022/12/21 04:05:21;;;;;;;283.33;28.33;;;5.10;99.90;;;;;;5034203;28;20041;-26
2022/12/21 04:07:49;;;;;;;294.63;28.30;;;4.80;99.90;;;;;;5034719;28;20041;-27
2022/12/21 04:10:19;;;;;;;280.17;29.17;;;4.90;99.90;;;;;;5049572;28;20093;-27
2022/12/21 04:12:46;;;;;;;205.70;24.13;;;5.10;99.90;;;;;;5016495;28;20052;-27
2022/12/21 04:15:17;;;;;;;225.50;26.98;;;4.80;99.90;;;;;;5033366;28;20053;-27
2022/12/21 04:17:45;;;;;;;341.27;34.58;;;4.90;99.90;;;;;;5034117;28;20176;-27
2022/12/21 04:20:14;;;;;;;340.98;34.00;;;4.80;99.90;;;;;;5033865;28;20527;-26
2022/12/21 04:28:28;;;;;;;354.50;34.35;;;5.10;99.90;;;;;;5034412;28;20119;-27
2022/12/21 04:30:55;;;;;;;448.10;40.10;;;5.00;99.90;;;;;;5033769;28;20522;-27
2022/12/21 04:33:22;;;;;;;487.80;42.08;;;5.00;99.90;;;;;;5049017;28;20052;-27
2022/12/21 04:38:36;;;;;;;508.58;42.47;;;5.00;99.90;;;;;;5033713;28;20511;-26
2022/12/21 04:41:02;;;;;;;375.08;36.10;;;5.10;99.90;;;;;;5016266;28;20050;-27
2022/12/21 04:43:28;;;;;;;182.15;24.33;;;4.90;99.90;;;;;;5034389;28;20042;-28
2022/12/21 04:46:02;;;;;;;347.70;35.45;;;5.20;99.90;;;;;;5015927;28;20085;-27
2022/12/21 04:48:28;;;;;;;355.67;35.88;;;5.00;99.90;;;;;;5033546;28;20481;-27
2022/12/21 04:50:54;;;;;;;409.27;38.28;;;5.00;99.90;;;;;;5033546;28;20049;-27
2022/12/21 04:53:19;;;;;;;367.80;36.25;;;5.10;99.90;;;;;;5016083;28;20048;-27
2022/12/21 04:55:45;;;;;;;418.58;38.80;;;5.10;99.90;;;;;;5033451;28;20048;-27
2022/12/21 04:58:11;;;;;;;268.65;30.98;;;5.10;99.90;;;;;;5033451;28;20045;-27
2022/12/21 05:00:37;;;;;;;349.23;34.08;;;5.20;99.90;;;;;;5033996;28;20132;-27
2022/12/21 05:03:03;;;;;;;349.67;31.77;;;4.90;99.90;;;;;;5033631;28;20128;-27
2022/12/21 05:05:29;;;;;;;344.75;32.50;;;4.90;99.90;;;;;;5033410;28;20531;-26
2022/12/21 05:07:55;;;;;;;373.90;34.95;;;5.10;99.90;;;;;;5015971;28;20418;-27
2022/12/21 05:10:21;;;;;;;261.50;28.13;;;5.10;99.90;;;;;;5049337;28;20052;-27
2022/12/21 05:12:47;;;;;;;321.40;29.67;;;5.10;99.90;;;;;;5034133;28;20049;-27
2022/12/21 05:15:13;;;;;;;347.85;33.33;;;5.20;99.90;;;;;;5033222;28;20053;-27
2022/12/21 05:17:43;;;;;;;416.02;35.78;;;5.20;99.90;;;;;;5048765;28;20136;-26
2022/12/21 05:20:08;;;;;;;246.82;25.77;;;5.00;99.90;;;;;;5033319;28;20046;-27
2022/12/21 05:22:34;;;;;;;504.83;38.83;;;5.10;99.90;;;;;;5033267;28;20053;-27
2022/12/21 05:25:00;;;;;;;218.00;22.35;;;4.90;99.90;;;;;;5033719;28;20050;-27
2022/12/21 05:27:26;;;;;;;332.50;27.55;;;5.10;99.90;;;;;;5034677;28;20048;-27
2022/12/21 05:29:51;;;;;;;403.75;34.63;;;5.10;99.90;;;;;;5037093;28;20046;-28
2022/12/21 05:32:17;;;;;;;533.47;39.10;;;4.90;99.90;;;;;;5037838;28;20041;-28
2022/12/21 05:34:44;;;;;;;352.83;33.17;;;5.20;99.90;;;;;;5037523;28;20525;-27
2022/12/21 05:37:10;;;;;;;311.50;30.45;;;5.00;99.90;;;;;;5037549;28;20049;-28
2022/12/21 05:39:36;;;;;;;143.82;17.25;;;5.10;99.90;;;;;;5037462;28;20049;-27
2022/12/21 05:42:02;;;;;;;338.70;31.63;;;5.20;99.90;;;;;;5036172;28;20185;-27
2022/12/21 05:44:28;;;;;;;399.80;36.13;;;5.10;99.90;;;;;;5036749;28;20045;-28
2022/12/21 05:46:55;;;;;;;320.88;26.65;;;5.20;99.90;;;;;;5037346;28;20076;-28
2022/12/21 05:49:20;;;;;;;344.95;31.17;;;5.00;99.90;;;;;;5037494;28;20076;-28
2022/12/21 05:51:49;;;;;;;327.77;30.45;;;5.00;99.90;;;;;;5018959;28;20553;-27
2022/12/21 05:54:15;;;;;;;386.65;33.08;;;5.20;99.90;;;;;;5036182;28;20456;-28
2022/12/21 05:56:42;;;;;;;239.70;23.98;;;5.10;99.90;;;;;;5037092;28;20038;-27
2022/12/21 05:59:08;;;;;;;257.45;25.55;;;5.20;99.90;;;;;;5036441;28;20081;-28
2022/12/21 06:01:34;;;;;;;375.70;31.45;;;5.00;99.90;;;;;;5036395;28;20056;-28
2022/12/21 06:04:00;;;;;;;332.05;28.73;;;5.00;99.90;;;;;;5051566;28;20052;-28
2022/12/21 06:06:26;;;;;;;228.02;22.67;;;5.20;99.90;;;;;;5036464;28;20046;-28
2022/12/21 06:08:52;;;;;;;327.45;30.75;;;5.00;99.90;;;;;;5036370;28;20053;-27
2022/12/21 06:11:21;;;;;;;293.33;26.50;;;4.90;99.90;;;;;;5018911;28;20049;-28
2022/12/21 06:13:48;;;;;;;367.48;31.33;;;5.20;99.90;;;;;;5036840;28;20068;-28
2022/12/21 06:16:17;;;;;;;314.02;31.15;;;5.00;99.90;;;;;;5036132;28;20045;-28
2022/12/21 06:18:43;;;;;;;374.83;33.53;;;5.10;99.90;;;;;;5036410;28;20429;-27
2022/12/21 06:21:11;;;;;;;472.95;38.65;;;4.80;99.90;;;;;;5036902;28;20127;-27
2022/12/21 06:23:38;;;;;;;415.73;35.05;;;4.80;99.90;;;;;;5036034;28;20404;-27
2022/12/21 06:26:05;;;;;;;315.95;31.13;;;5.20;99.90;;;;;;5036598;28;20501;-27
2022/12/21 06:28:32;;;;;;;437.63;35.03;;;5.10;99.90;;;;;;5036514;28;20072;-27
2022/12/21 06:31:12;;;;;;;448.95;35.13;;;4.90;99.90;;;;;;5035969;28;20049;-27
2022/12/21 06:33:38;;;;;;;313.63;29.27;;;5.00;99.90;;;;;;5051652;28;20179;-27
2022/12/21 06:36:06;;;;;;;352.88;34.03;;;5.10;99.90;;;;;;5019148;28;20391;-27
2022/12/21 06:38:32;;;;;;;323.42;30.33;;;5.00;99.90;;;;;;5017298;28;20518;-27
2022/12/21 06:41:01;;;;;;;347.83;30.55;;;5.30;99.90;;;;;;5035750;28;20042;-27
2022/12/21 06:43:28;;;;;;;405.67;36.58;;;5.00;99.90;;;;;;5035627;28;20045;-27
2022/12/21 06:46:00;;;;;;;448.27;38.30;;;5.20;99.90;;;;;;5036433;28;20049;-28
2022/12/21 06:48:27;;;;;;;416.67;37.70;;;4.90;99.90;;;;;;5036137;28;20041;-28
2022/12/21 06:51:01;;;;;;;442.52;38.67;;;5.10;99.90;;;;;;5035642;28;20084;-27
2022/12/21 06:53:34;;;;;;;393.92;36.70;;;5.00;99.90;;;;;;5035515;28;20080;-27
2022/12/21 06:56:02;;;;;;;453.25;37.58;;;4.90;99.90;;;;;;5035554;28;20128;-27
2022/12/21 06:58:28;;;;;;;461.63;37.63;;;5.20;99.90;;;;;;5035450;28;20046;-27
2022/12/21 07:00:54;;;;;;;540.05;43.80;;;4.90;99.90;;;;;;5035373;28;20046;-27
2022/12/21 07:03:21;;;;;;;570.25;43.55;;;5.00;99.90;;;;;;5017475;28;20041;-27
2022/12/21 07:05:49;;;;;;;517.40;43.15;;;4.90;99.90;;;;;;5018677;28;20103;-27
2022/12/21 07:08:15;;;;;;;354.00;33.50;;;4.80;99.90;;;;;;5035233;28;20395;-27
2022/12/21 07:10:41;;;;;;;335.40;33.50;;;5.00;99.90;;;;;;5050572;28;20037;-27
2022/12/21 07:13:07;;;;;;;285.80;27.88;;;5.10;99.90;;;;;;5034154;28;20128;-27
2022/12/21 07:15:36;;;;;;;386.25;37.00;;;5.20;99.90;;;;;;5035041;28;20089;-28
2022/12/21 07:18:02;;;;;;;349.00;33.50;;;5.00;99.90;;;;;;5035194;28;20391;-28
2022/12/21 07:20:28;;;;;;;492.88;42.10;;;5.10;99.90;;;;;;5035870;28;20236;-28
2022/12/21 07:22:53;;;;;;;482.10;40.67;;;5.30;99.90;;;;;;5034882;28;20610;-28
2022/12/21 07:25:19;;;;;;;420.27;41.40;;;5.00;99.90;;;;;;5050414;28;20128;-28
2022/12/21 07:27:45;;;;;;;514.50;45.00;;;5.00;99.90;;;;;;5035692;28;20049;-27
2022/12/21 07:30:11;;;;;;;424.75;39.38;;;5.00;99.90;;;;;;5018209;28;20046;-27
2022/12/21 07:32:37;;;;;;;491.15;42.95;;;5.20;99.90;;;;;;5034760;28;20597;-27
2022/12/21 07:35:03;;;;;;;503.52;46.03;;;5.30;99.90;;;;;;5050960;28;20117;-27
2022/12/21 07:37:29;;;;;;;422.13;40.92;;;5.30;99.90;;;;;;5034670;28;20111;-28
2022/12/21 07:39:55;;;;;;;362.52;39.80;;;5.30;99.90;;;;;;5034607;28;20053;-27
2022/12/21 07:42:21;;;;;;;463.40;47.38;;;5.30;99.90;;;;;;5034574;28;20095;-27
2022/12/21 07:44:47;;;;;;;335.13;36.58;;;5.10;99.90;;;;;;5017396;28;20056;-28
2022/12/21 07:47:12;;;;;;;438.95;43.88;;;5.20;99.90;;;;;;5034820;28;20049;-28
2022/12/21 07:49:39;;;;;;;514.63;46.50;;;5.10;99.90;;;;;;5033530;28;20045;-28
2022/12/21 07:52:05;;;;;;;466.02;43.50;;;5.30;99.90;;;;;;5033232;28;20104;-28
2022/12/21 07:54:31;;;;;;;552.90;47.00;;;5.20;99.90;;;;;;5034378;28;20049;-28
2022/12/21 07:56:58;;;;;;;668.00;57.15;;;5.40;99.90;;;;;;5035133;28;20464;-28
2022/12/21 07:59:24;;;;;;;400.20;39.13;;;5.20;99.90;;;;;;5034252;28;20120;-28
2022/12/21 08:01:50;;;;;;;479.90;43.67;;;5.60;99.90;;;;;;5034523;28;20523;-28
2022/12/21 08:04:16;;;;;;;608.42;55.30;;;5.50;99.90;;;;;;5049509;28;20373;-28
2022/12/21 08:06:42;;;;;;;917.15;91.32;;;5.40;99.90;;;;;;5034677;28;20430;-28
2022/12/21 08:09:09;;;;;;;1074.28;118.53;;;5.50;99.90;;;;;;5017222;28;20056;-28
2022/12/21 08:11:35;;;;;;;877.38;95.70;;;5.10;99.90;;;;;;5034006;28;20042;-28
2022/12/21 08:14:01;;;;;;;441.35;49.83;;;5.40;99.90;;;;;;5034057;28;20053;-28
2022/12/21 08:16:27;;;;;;;742.00;71.05;;;5.30;99.90;;;;;;5033734;28;20057;-27
2022/12/21 08:18:55;;;;;;;533.20;50.53;;;5.50;99.90;;;;;;4983552;28;20155;-28
2022/12/21 08:21:21;;;;;;;469.38;59.20;;;5.50;99.90;;;;;;5014188;28;20046;-28
2022/12/21 08:23:48;;;;;;;375.42;53.03;;;5.40;99.90;;;;;;5014645;28;20069;-28
2022/12/21 08:26:14;;;;;;;383.98;48.60;;;5.40;99.90;;;;;;5029940;28;20085;-27
2022/12/21 08:28:43;;;;;;;400.27;48.40;;;5.70;99.90;;;;;;5014071;28;20053;-27
2022/12/21 08:31:19;;;;;;;322.70;46.22;;;5.50;99.90;;;;;;5014005;28;20050;-27
2022/12/21 08:33:46;;;;;;;235.88;39.42;;;5.30;99.90;;;;;;5014051;28;20045;-28
2022/12/21 08:36:14;;;;;;;234.35;36.95;;;5.60;99.90;;;;;;5014297;28;20049;-27
2022/12/21 08:38:40;;;;;;;333.38;46.92;;;5.50;99.90;;;;;;5013953;28;20058;-28
2022/12/21 08:41:06;;;;;;;276.60;40.00;;;5.50;99.90;;;;;;5013915;28;20050;-27
2022/12/21 08:43:34;;;;;;;309.70;43.88;;;5.40;99.90;;;;;;4996334;28;20378;-27
2022/12/21 08:46:08;;;;;;;389.63;48.80;;;5.20;99.90;;;;;;5013560;28;20378;-28
2022/12/21 08:48:35;;;;;;;306.50;38.95;;;5.50;99.90;;;;;;5013755;28;20065;-27
2022/12/21 08:51:01;;;;;;;273.52;38.65;;;5.60;99.90;;;;;;5014314;28;20432;-28
2022/12/21 08:53:27;;;;;;;219.93;33.65;;;5.60;99.90;;;;;;5012705;28;20050;-28
2022/12/21 08:55:54;;;;;;;246.52;36.05;;;5.30;99.90;;;;;;5013498;28;20058;-28
2022/12/21 08:58:22;;;;;;;224.98;36.85;;;5.70;99.90;;;;;;5013746;28;20049;-28
2022/12/21 09:00:52;;;;;;;332.08;49.58;;;5.70;99.90;;;;;;5013680;28;20129;-28
2022/12/21 09:03:18;;;;;;;358.20;50.83;;;5.60;99.90;;;;;;5000197;28;20495;-27
2022/12/21 09:05:45;;;;;;;326.67;46.38;;;5.70;99.90;;;;;;5017763;28;20084;-28
2022/12/21 09:08:12;;;;;;;327.23;50.90;;;5.40;99.90;;;;;;5017973;28;20396;-28
2022/12/21 09:10:38;;;;;;;387.98;52.53;;;5.70;99.90;;;;;;5017685;28;20053;-29
2022/12/21 09:13:04;;;;;;;347.75;52.13;;;5.60;99.90;;;;;;5017648;28;20061;-28
2022/12/21 09:15:30;;;;;;;255.57;57.22;;;5.70;99.90;;;;;;5017232;28;20488;-28
2022/12/21 09:17:56;;;;;;;283.85;51.00;;;6.00;99.90;;;;;;5026184;28;20061;-28
2022/12/21 09:20:22;;;;;;;199.02;38.20;;;5.70;99.90;;;;;;5037283;28;20045;-28
2022/12/21 09:22:48;;;;;;;237.93;48.42;;;5.90;99.90;;;;;;5019534;28;20045;-28
2022/12/21 09:25:14;;;;;;;264.58;49.47;;;6.10;99.90;;;;;;5037958;28;20091;-28
2022/12/21 09:27:40;;;;;;;254.85;49.65;;;5.90;99.90;;;;;;5037115;28;20479;-29
2022/12/21 09:30:06;;;;;;;222.73;47.58;;;5.80;99.90;;;;;;5037065;28;20046;-27
2022/12/21 09:32:33;;;;;;;239.23;54.00;;;6.00;99.90;;;;;;5036657;28;20454;-28
2022/12/21 09:34:59;;;;;;;218.20;47.72;;;6.10;99.90;;;;;;5037547;28;20046;-28
2022/12/21 09:37:25;;;;;;;168.20;40.80;;;6.20;99.90;;;;;;5037193;28;20123;-28
2022/12/21 09:39:51;;;;;;;183.98;43.45;;;6.10;99.90;;;;;;5036937;28;20049;-28
2022/12/21 09:42:40;;;;;;;206.82;64.28;;;5.80;99.90;;;;;;5051977;28;20474;-28
2022/12/21 09:45:11;;;;;;;159.45;46.25;;;6.10;99.90;;;;;;5037065;28;20049;-28
2022/12/21 09:47:50;;;;;;;206.15;54.40;;;6.10;99.90;;;;;;5037396;28;20084;-27
2022/12/21 09:50:29;;;;;;;151.13;41.58;;;5.70;99.90;;;;;;5036766;28;20049;-28
2022/12/21 09:53:12;;;;;;;164.73;49.88;;;5.70;99.90;;;;;;5019594;28;20100;-28
2022/12/21 09:55:48;;;;;;;189.73;82.90;;;5.90;99.90;;;;;;5018931;28;20125;-28
2022/12/21 09:58:21;;;;;;;159.85;48.92;;;5.90;99.90;;;;;;5019169;28;20110;-28
2022/12/21 10:00:55;;;;;;;151.70;40.92;;;6.00;99.90;;;;;;5037129;28;20053;-28
2022/12/21 10:03:49;;;;;;;149.80;40.60;;;6.10;99.90;;;;;;5052518;28;20103;-28
2022/12/21 10:06:41;;;;;;;218.77;50.58;;;6.40;99.90;;;;;;5037060;28;20377;-28
2022/12/21 10:09:34;;;;;;;100.60;29.95;;;6.10;99.90;;;;;;5019205;28;20060;-28
2022/12/21 10:12:26;;;;;;;129.55;35.10;;;6.30;99.90;;;;;;5018904;28;20057;-28
2022/12/21 10:15:16;;;;;;;144.57;39.75;;;6.40;99.90;;;;;;5051428;28;20053;-28
2022/12/21 10:18:23;;;;;;;159.50;43.33;;;6.20;99.90;;;;;;5036500;28;20064;-28
2022/12/21 10:20:52;;;;;;;153.88;44.53;;;6.30;99.90;;;;;;5036801;28;20061;-27
2022/12/21 10:23:25;;;;;;;171.07;47.25;;;6.10;99.90;;;;;;5018261;28;20046;-27
2022/12/21 10:25:56;;;;;;;163.45;47.63;;;6.20;99.90;;;;;;5052580;28;20397;-27
2022/12/21 10:28:33;;;;;;;171.88;49.65;;;6.30;99.90;;;;;;5036042;28;20046;-27
2022/12/21 10:31:09;;;;;;;144.50;39.83;;;6.50;99.90;;;;;;5018292;28;20045;-27
2022/12/21 10:33:40;;;;;;;150.10;41.67;;;6.50;99.90;;;;;;5035968;28;20128;-28
2022/12/21 10:36:12;;;;;;;137.85;39.20;;;6.40;99.90;;;;;;5051120;28;20132;-27
2022/12/21 10:38:38;;;;;;;166.63;46.17;;;6.40;99.90;;;;;;5035920;28;20072;-27
2022/12/21 10:41:10;;;;;;;183.52;54.53;;;6.60;99.90;;;;;;5035731;28;20085;-27
2022/12/21 10:43:39;;;;;;;147.75;43.38;;;6.60;99.90;;;;;;5052115;28;20045;-27
2022/12/21 10:46:05;;;;;;;162.60;48.80;;;6.60;99.90;;;;;;5035664;28;20381;-27
2022/12/21 10:48:34;;;;;;;146.77;44.53;;;6.70;99.90;;;;;;5035619;28;20084;-28
2022/12/21 10:51:44;;;;;;;170.40;51.15;;;6.70;99.90;;;;;;5035366;28;20440;-27
2022/12/21 10:54:10;;;;;;;127.63;38.05;;;6.80;99.90;;;;;;5023192;28;20463;-27
2022/12/21 10:56:45;;;;;;;142.38;42.65;;;6.90;99.90;;;;;;5035823;28;20045;-27
2022/12/21 10:59:24;;;;;;;133.55;41.47;;;7.00;99.90;;;;;;5036368;28;20152;-27
2022/12/21 11:01:50;;;;;;;114.55;33.03;;;6.90;99.90;;;;;;5036320;28;20392;-27
2022/12/21 11:04:22;;;;;;;120.00;37.75;;;6.80;99.90;;;;;;5035366;28;20050;-28
2022/12/21 11:07:25;;;;;;;119.63;36.80;;;6.90;99.90;;;;;;5035342;28;20050;-27
2022/12/21 11:10:01;;;;;;;120.20;39.78;;;6.80;99.90;;;;;;5035141;28;20045;-27
2022/12/21 11:12:27;;;;;;;103.10;30.48;;;6.80;99.90;;;;;;5036125;28;20045;-27
2022/12/21 11:14:55;;;;;;;66.80;23.73;;;6.80;99.90;;;;;;5035069;28;20045;-28
2022/12/21 11:17:25;;;;;;;96.75;32.05;;;6.70;99.90;;;;;;5034858;28;20068;-27
2022/12/21 11:20:20;;;;;;;98.82;32.88;;;6.70;99.90;;;;;;5035147;28;20081;-28
2022/12/21 11:22:50;;;;;;;118.25;32.80;;;6.90;99.90;;;;;;5022169;28;20450;-27
2022/12/21 11:25:28;;;;;;;103.93;30.88;;;7.00;99.90;;;;;;5034763;28;20046;-28
2022/12/21 11:27:59;;;;;;;93.25;31.30;;;7.00;99.90;;;;;;5034938;28;20053;-27
2022/12/21 11:30:26;;;;;;;112.95;34.58;;;7.10;99.90;;;;;;5035483;28;20041;-28
2022/12/21 11:32:56;;;;;;;94.03;28.33;;;7.20;99.90;;;;;;5034504;28;20555;-27
2022/12/21 11:35:33;;;;;;;90.28;30.25;;;7.10;99.90;;;;;;5034734;28;20049;-28
2022/12/21 11:38:09;;;;;;;96.70;28.92;;;7.10;99.90;;;;;;5034831;28;20045;-28
2022/12/21 11:40:35;;;;;;;81.28;26.73;;;7.10;99.90;;;;;;5035289;28;20124;-27
2022/12/21 11:43:00;;;;;;;82.22;27.55;;;7.10;99.90;;;;;;5050708;28;20132;-28
2022/12/21 11:45:47;;;;;;;74.10;24.70;;;7.00;99.90;;;;;;5034542;28;20053;-28
2022/12/21 11:48:40;;;;;;;84.50;25.52;;;7.10;99.90;;;;;;5034565;28;20060;-27
2022/12/21 11:51:24;;;;;;;83.50;26.42;;;7.00;99.90;;;;;;5034492;28;20056;-27
2022/12/21 11:54:03;;;;;;;76.85;24.08;;;7.10;99.90;;;;;;5035038;28;20042;-28
2022/12/21 11:56:39;;;;;;;75.53;26.10;;;7.20;99.90;;;;;;5034691;28;20400;-27
2022/12/21 11:59:29;;;;;;;77.65;23.50;;;7.20;99.90;;;;;;5050259;28;20049;-28
2022/12/21 12:02:29;;;;;;;83.10;26.50;;;7.20;99.90;;;;;;5034302;28;20103;-27
2022/12/21 12:05:16;;;;;;;71.30;25.13;;;7.30;99.90;;;;;;5035028;28;20042;-27
2022/12/21 12:08:05;;;;;;;71.20;24.13;;;7.30;99.90;;;;;;5034807;28;20381;-27
2022/12/21 12:11:09;;;;;;;76.95;24.10;;;7.30;99.90;;;;;;5034148;28;20089;-28
2022/12/21 12:13:54;;;;;;;65.07;21.58;;;7.40;99.90;;;;;;5034129;28;20111;-27
2022/12/21 12:16:28;;;;;;;60.00;19.77;;;7.40;99.90;;;;;;5016586;28;20049;-27
2022/12/21 12:19:18;;;;;;;61.15;19.27;;;7.40;99.90;;;;;;5033665;28;20058;-28
2022/12/21 12:22:03;;;;;;;62.83;19.63;;;7.40;99.90;;;;;;5034776;28;20060;-27
2022/12/21 12:24:58;;;;;;;52.53;19.00;;;7.50;99.90;;;;;;5034112;28;20514;-28
2022/12/21 12:27:24;;;;;;;58.17;20.27;;;7.50;99.90;;;;;;5050117;28;20065;-29
2022/12/21 12:30:01;;;;;;;51.50;19.73;;;7.60;99.90;;;;;;5033817;28;20053;-29
2022/12/21 12:32:48;;;;;;;52.53;17.15;;;7.90;99.90;;;;;;5033837;28;20554;-29
2022/12/21 12:35:14;;;;;;;48.70;17.15;;;8.10;99.90;;;;;;5034101;28;20060;-30
2022/12/21 12:38:19;;;;;;;56.95;18.48;;;8.10;99.90;;;;;;5048959;28;20388;-29
2022/12/21 12:41:08;;;;;;;51.63;17.77;;;8.20;99.90;;;;;;5003100;28;20132;-29
2022/12/21 12:43:37;;;;;;;43.35;13.90;;;8.30;99.90;;;;;;5033663;28;20111;-29
2022/12/21 12:46:08;;;;;;;30.15;12.45;;;8.40;99.90;;;;;;5033655;28;20056;-27
2022/12/21 12:48:46;;;;;;;35.35;12.57;;;8.40;99.90;;;;;;5033695;28;20065;-27
2022/12/21 12:51:20;;;;;;;31.40;11.55;;;8.40;99.90;;;;;;5033928;28;20049;-27
2022/12/21 12:53:52;;;;;;;38.60;14.15;;;8.20;99.90;;;;;;5033709;28;20077;-27
2022/12/21 12:56:20;;;;;;;27.75;11.68;;;8.30;99.90;;;;;;5033514;28;20107;-27
2022/12/21 12:59:14;;;;;;;30.25;11.95;;;8.20;99.90;;;;;;5033538;28;20053;-27
2022/12/21 13:02:03;;;;;;;35.83;13.00;;;8.10;99.90;;;;;;5033831;28;20550;-27
2022/12/21 13:04:40;;;;;;;34.95;15.05;;;7.90;99.90;;;;;;5033740;28;20085;-27